Time;durP1;ratioP1;P1;durP2;ratioP2;P2;SDS_P1;SDS_P2;PMS_P1;PMS_P2;Temp;Humidity;BMP_temperature;BMP_pressure;BME280_temperature;BME280_humidity;BME280_pressure;Samples;Min_cycle;Max_cycle;Signal;HPM_P1;HPM_P2
2022/10/07 00:02:05;;;;;;;4.17;2.60;;;13.00;99.90;;;;;;5130453;27;20679;-69
2022/10/07 00:04:32;;;;;;;2.30;2.00;;;13.00;99.90;;;;;;5130593;27;20232;-70
2022/10/07 00:06:59;;;;;;;3.77;2.30;;;13.00;99.90;;;;;;5130483;27;20258;-69
2022/10/07 00:09:27;;;;;;;7.57;2.50;;;13.00;99.90;;;;;;5130028;27;20205;-69
2022/10/07 00:11:54;;;;;;;3.47;2.20;;;13.00;99.90;;;;;;5129637;27;20816;-69
2022/10/07 00:14:21;;;;;;;2.73;2.03;;;13.00;99.90;;;;;;5130660;27;20270;-69
2022/10/07 00:16:48;;;;;;;4.67;2.13;;;13.00;99.90;;;;;;5130448;27;20210;-69
2022/10/07 00:19:14;;;;;;;3.60;2.23;;;12.90;99.90;;;;;;5130473;27;20197;-69
2022/10/07 00:21:41;;;;;;;4.80;2.20;;;12.90;99.90;;;;;;5129866;27;20212;-69
2022/10/07 00:24:09;;;;;;;3.87;2.23;;;12.90;99.90;;;;;;5122100;27;20708;-69
2022/10/07 00:26:38;;;;;;;2.30;2.10;;;12.90;99.90;;;;;;5109041;28;20719;-69
2022/10/07 00:29:07;;;;;;;5.03;2.40;;;12.80;99.90;;;;;;5128577;27;20292;-69
2022/10/07 00:31:35;;;;;;;5.07;2.43;;;12.90;99.90;;;;;;5130110;27;20197;-69
2022/10/07 00:34:03;;;;;;;3.87;2.20;;;12.80;99.90;;;;;;5129842;27;20206;-70
2022/10/07 00:36:32;;;;;;;3.13;2.17;;;12.70;99.90;;;;;;5129696;27;20216;-69
2022/10/07 00:39:01;;;;;;;5.93;2.20;;;12.80;99.90;;;;;;5129688;27;20197;-69
2022/10/07 00:41:31;;;;;;;2.77;2.43;;;12.70;99.90;;;;;;5129890;27;21028;-69
2022/10/07 00:44:00;;;;;;;4.53;2.60;;;12.80;99.90;;;;;;5129469;27;20308;-69
2022/10/07 00:46:31;;;;;;;6.20;2.40;;;12.70;99.90;;;;;;5129304;27;20205;-69
2022/10/07 00:49:01;;;;;;;4.80;2.33;;;12.70;99.90;;;;;;5129561;27;20313;-69
2022/10/07 00:51:29;;;;;;;4.50;2.27;;;12.70;99.90;;;;;;5129470;27;20671;-69
2022/10/07 00:53:56;;;;;;;5.47;2.70;;;12.70;99.90;;;;;;5129563;27;20202;-69
2022/10/07 00:56:25;;;;;;;4.43;2.33;;;12.70;99.90;;;;;;5129025;27;20668;-69
2022/10/07 00:58:52;;;;;;;2.47;2.27;;;12.70;99.90;;;;;;5129043;27;20829;-69
2022/10/07 01:01:21;;;;;;;3.63;2.50;;;12.70;99.90;;;;;;5129123;27;20711;-70
2022/10/07 01:03:49;;;;;;;5.00;2.40;;;12.70;99.90;;;;;;5129254;27;20229;-71
2022/10/07 01:06:16;;;;;;;4.40;2.63;;;12.70;99.90;;;;;;5128989;27;20205;-70
2022/10/07 01:08:44;;;;;;;3.17;2.40;;;12.70;99.90;;;;;;5129081;27;20205;-70
2022/10/07 01:11:21;;;;;;;5.10;2.60;;;12.60;99.90;;;;;;5128947;27;20205;-71
2022/10/07 01:13:58;;;;;;;3.67;1.97;;;12.60;99.90;;;;;;5126218;27;20213;-69
2022/10/07 01:16:34;;;;;;;3.03;2.30;;;12.60;99.90;;;;;;5108970;28;20198;-69
2022/10/07 01:19:11;;;;;;;5.83;2.00;;;12.60;99.90;;;;;;5108633;28;20202;-69
2022/10/07 01:21:45;;;;;;;4.53;2.10;;;12.60;99.90;;;;;;5111155;27;20293;-69
2022/10/07 01:24:26;;;;;;;2.53;2.27;;;12.60;99.90;;;;;;5112155;27;20253;-69
2022/10/07 01:27:00;;;;;;;6.40;2.27;;;12.60;99.90;;;;;;5108048;27;20667;-69
2022/10/07 01:29:34;;;;;;;4.07;2.40;;;12.60;99.90;;;;;;5108380;28;20792;-69
2022/10/07 01:32:05;;;;;;;4.37;2.00;;;12.50;99.90;;;;;;5108467;28;20723;-69
2022/10/07 01:34:34;;;;;;;3.37;1.90;;;12.50;99.90;;;;;;5116918;27;20232;-69
2022/10/07 01:37:03;;;;;;;5.40;2.23;;;12.50;99.90;;;;;;5128701;27;20202;-69
2022/10/07 01:39:34;;;;;;;3.13;2.20;;;12.40;99.90;;;;;;5128514;27;20204;-69
2022/10/07 01:42:02;;;;;;;5.20;2.40;;;12.40;99.90;;;;;;5128544;27;20198;-69
2022/10/07 01:44:30;;;;;;;6.33;2.23;;;12.40;99.90;;;;;;5128655;27;20688;-69
2022/10/07 01:46:58;;;;;;;3.27;2.10;;;12.30;99.90;;;;;;5128745;27;20225;-69
2022/10/07 01:49:25;;;;;;;3.37;2.27;;;12.30;99.90;;;;;;5117453;27;20647;-69
2022/10/07 01:52:08;;;;;;;4.90;2.00;;;12.30;99.90;;;;;;5120925;27;20731;-69
2022/10/07 01:54:43;;;;;;;4.63;2.03;;;12.30;99.90;;;;;;5128889;27;20190;-69
2022/10/07 01:57:26;;;;;;;3.53;2.47;;;12.30;99.90;;;;;;5128239;27;20197;-69
2022/10/07 02:00:06;;;;;;;4.33;2.10;;;12.30;99.90;;;;;;5128121;27;20236;-69
2022/10/07 02:02:47;;;;;;;5.57;2.33;;;12.30;99.90;;;;;;5120065;27;20194;-69
2022/10/07 02:05:22;;;;;;;6.03;2.13;;;12.20;99.90;;;;;;5128856;27;20225;-69
2022/10/07 02:08:01;;;;;;;5.77;2.30;;;12.20;99.90;;;;;;5128908;27;20193;-69
2022/10/07 02:10:33;;;;;;;4.23;2.20;;;12.20;99.90;;;;;;5128779;27;20208;-69
2022/10/07 02:13:08;;;;;;;2.23;2.03;;;12.20;99.90;;;;;;5128646;27;20194;-69
2022/10/07 02:15:39;;;;;;;6.27;2.10;;;12.20;99.90;;;;;;5128743;27;20201;-69
2022/10/07 02:18:09;;;;;;;5.33;2.43;;;12.20;99.90;;;;;;5128676;27;20186;-69
2022/10/07 02:20:38;;;;;;;3.13;2.17;;;12.20;99.90;;;;;;5128364;27;20198;-69
2022/10/07 02:23:08;;;;;;;5.10;2.10;;;12.20;99.90;;;;;;5128712;27;20205;-69
2022/10/07 02:25:40;;;;;;;5.77;2.50;;;12.20;99.90;;;;;;5117502;27;20591;-69
2022/10/07 02:28:11;;;;;;;3.80;2.10;;;12.20;99.90;;;;;;5106101;28;20205;-69
2022/10/07 02:30:38;;;;;;;5.17;2.17;;;12.10;99.90;;;;;;5112775;28;20201;-69
2022/10/07 02:33:07;;;;;;;2.87;2.10;;;12.10;99.90;;;;;;5115332;28;20197;-69
2022/10/07 02:35:40;;;;;;;5.20;2.27;;;12.10;99.90;;;;;;5112058;27;20225;-69
2022/10/07 02:38:11;;;;;;;5.57;2.50;;;12.00;99.90;;;;;;5105670;28;20197;-70
2022/10/07 02:40:44;;;;;;;4.97;4.00;;;12.00;99.90;;;;;;5105739;28;20569;-69
2022/10/07 02:43:17;;;;;;;5.97;2.77;;;12.00;99.90;;;;;;5126305;28;20205;-68
2022/10/07 02:45:49;;;;;;;4.83;2.50;;;12.00;99.90;;;;;;5126509;27;20722;-68
2022/10/07 02:48:22;;;;;;;5.13;2.00;;;12.00;99.90;;;;;;5125928;27;20213;-68
2022/10/07 02:50:52;;;;;;;4.07;2.20;;;12.00;99.90;;;;;;5126089;27;20194;-68
2022/10/07 02:53:21;;;;;;;5.60;2.40;;;11.90;99.90;;;;;;5105609;28;20534;-68
2022/10/07 02:55:49;;;;;;;4.87;2.20;;;11.90;99.90;;;;;;5124845;28;20205;-68
2022/10/07 02:58:19;;;;;;;5.97;2.10;;;11.90;99.90;;;;;;5113309;27;20213;-68
2022/10/07 03:00:51;;;;;;;4.50;2.57;;;11.90;99.90;;;;;;5117993;28;20252;-67
2022/10/07 03:03:18;;;;;;;6.33;2.30;;;11.90;99.90;;;;;;5124568;27;20632;-68
2022/10/07 03:05:48;;;;;;;5.37;2.07;;;11.90;99.90;;;;;;5125215;27;20233;-68
2022/10/07 03:08:15;;;;;;;4.87;2.30;;;11.90;99.90;;;;;;5128687;27;20547;-69
2022/10/07 03:10:42;;;;;;;2.93;2.10;;;11.80;99.90;;;;;;5129863;27;20379;-68
2022/10/07 03:13:09;;;;;;;5.87;1.93;;;11.90;99.90;;;;;;5130218;27;20213;-68
2022/10/07 03:15:39;;;;;;;6.80;1.90;;;11.90;99.90;;;;;;5130025;27;20285;-68
2022/10/07 03:18:06;;;;;;;4.40;1.97;;;11.90;99.90;;;;;;5129904;27;20233;-68
2022/10/07 03:20:33;;;;;;;3.23;2.10;;;11.90;99.90;;;;;;5130062;27;20201;-68
2022/10/07 03:23:00;;;;;;;4.73;2.20;;;11.80;99.90;;;;;;5129673;27;20660;-68
2022/10/07 03:25:27;;;;;;;2.87;2.03;;;11.80;99.90;;;;;;5131077;27;20273;-68
2022/10/07 03:27:57;;;;;;;5.17;2.20;;;11.80;99.90;;;;;;5115087;27;20198;-68
2022/10/07 03:30:24;;;;;;;3.20;1.80;;;11.80;99.90;;;;;;5111039;28;20213;-68
2022/10/07 03:32:53;;;;;;;3.60;1.90;;;11.80;99.90;;;;;;5110652;28;20293;-68
2022/10/07 03:35:20;;;;;;;5.60;2.30;;;11.80;99.90;;;;;;5122489;27;20201;-68
2022/10/07 03:37:47;;;;;;;4.73;1.90;;;11.70;99.90;;;;;;5130582;27;20747;-68
2022/10/07 03:40:14;;;;;;;2.77;2.07;;;11.70;99.90;;;;;;5130888;27;20205;-68
2022/10/07 03:42:42;;;;;;;5.23;1.90;;;11.70;99.90;;;;;;5130905;27;20262;-68
2022/10/07 03:45:10;;;;;;;2.97;1.87;;;11.70;99.90;;;;;;5131019;27;20221;-68
2022/10/07 03:47:37;;;;;;;3.63;2.43;;;11.60;99.90;;;;;;5130820;27;20229;-68
2022/10/07 03:50:07;;;;;;;5.40;1.93;;;11.60;99.90;;;;;;5130582;27;20205;-68
2022/10/07 03:52:35;;;;;;;4.67;2.17;;;11.60;99.90;;;;;;5115874;27;20661;-68
2022/10/07 03:55:02;;;;;;;3.13;2.10;;;11.60;99.90;;;;;;5127029;27;20202;-68
2022/10/07 04:00:13;;;;;;;3.40;1.87;;;11.50;99.90;;;;;;5130264;27;20382;-68
2022/10/07 04:02:40;;;;;;;5.53;2.10;;;11.50;99.90;;;;;;5130826;27;20228;-68
2022/10/07 04:05:09;;;;;;;4.47;2.20;;;11.40;99.90;;;;;;5130810;27;20233;-68
2022/10/07 04:07:36;;;;;;;5.97;2.70;;;11.40;99.90;;;;;;5130822;27;20201;-68
2022/10/07 04:10:02;;;;;;;8.20;2.33;;;11.40;99.90;;;;;;5130408;27;20291;-68
2022/10/07 04:12:32;;;;;;;7.50;2.50;;;11.40;99.90;;;;;;5130200;27;20201;-68
2022/10/07 04:15:00;;;;;;;3.23;2.30;;;11.50;99.90;;;;;;5130296;27;20209;-68
2022/10/07 04:17:27;;;;;;;6.83;2.53;;;11.40;99.90;;;;;;5130460;27;20209;-68
2022/10/07 04:19:54;;;;;;;3.77;2.03;;;11.40;99.90;;;;;;5130428;27;20661;-68
2022/10/07 04:22:22;;;;;;;5.03;2.47;;;11.40;99.90;;;;;;5116790;27;20804;-68
2022/10/07 04:25:32;;;;;;;3.40;2.47;;;11.40;99.90;;;;;;5109032;27;20226;-68
2022/10/07 04:27:36;;;;;;;7.30;2.73;;;11.50;99.90;;;;;;5108878;28;20206;-68
2022/10/07 04:30:03;;;;;;;5.23;2.63;;;11.50;99.90;;;;;;5109443;27;20217;-68
2022/10/07 04:32:31;;;;;;;2.83;2.17;;;11.50;99.90;;;;;;5109298;28;20234;-68
2022/10/07 04:34:58;;;;;;;6.17;2.60;;;11.50;99.90;;;;;;5109375;28;20214;-69
2022/10/07 04:37:26;;;;;;;3.43;2.90;;;11.40;99.90;;;;;;5109301;28;20206;-68
2022/10/07 04:39:52;;;;;;;3.80;2.40;;;11.40;99.90;;;;;;5108861;28;20692;-69
2022/10/07 04:45:04;;;;;;;6.97;2.30;;;11.40;99.90;;;;;;5108891;28;20319;-68
2022/10/07 04:47:34;;;;;;;3.00;2.53;;;11.40;99.90;;;;;;5108887;28;20275;-68
2022/10/07 04:50:01;;;;;;;3.47;2.27;;;11.40;99.90;;;;;;5115219;27;20262;-69
2022/10/07 04:52:29;;;;;;;4.43;2.37;;;11.40;99.90;;;;;;5115826;27;20206;-69
2022/10/07 04:54:55;;;;;;;4.17;2.43;;;11.30;99.90;;;;;;5108878;28;20211;-68
2022/10/07 04:57:22;;;;;;;6.20;2.50;;;11.30;99.90;;;;;;5108821;28;20198;-68
2022/10/07 04:59:49;;;;;;;8.70;2.63;;;11.30;99.90;;;;;;5108621;28;20238;-69
2022/10/07 05:02:16;;;;;;;7.83;2.50;;;11.30;99.90;;;;;;5108940;28;20202;-68
2022/10/07 05:04:43;;;;;;;5.50;2.60;;;11.30;99.90;;;;;;5112770;27;20229;-68
2022/10/07 05:07:09;;;;;;;2.77;2.40;;;11.30;99.90;;;;;;5127521;27;20201;-68
2022/10/07 05:09:37;;;;;;;5.40;2.60;;;11.20;99.90;;;;;;5108636;27;20664;-68
2022/10/07 05:12:05;;;;;;;3.43;2.30;;;11.30;99.90;;;;;;5108297;28;20210;-68
2022/10/07 05:14:32;;;;;;;3.20;2.23;;;11.20;99.90;;;;;;5108783;28;20301;-68
2022/10/07 05:16:59;;;;;;;5.50;2.87;;;11.20;99.90;;;;;;5108610;28;20210;-68
2022/10/07 05:19:26;;;;;;;4.60;2.20;;;11.20;99.90;;;;;;5115982;27;21016;-68
2022/10/07 05:21:52;;;;;;;7.03;2.60;;;11.20;99.90;;;;;;5119624;27;20576;-68
2022/10/07 05:24:19;;;;;;;4.50;2.63;;;11.20;99.90;;;;;;5108545;28;20654;-68
2022/10/07 05:26:47;;;;;;;4.43;2.40;;;11.30;99.90;;;;;;5108079;28;20574;-68
2022/10/07 05:29:14;;;;;;;6.77;2.77;;;11.20;99.90;;;;;;5125379;27;20201;-68
2022/10/07 05:31:41;;;;;;;4.63;2.93;;;11.20;99.90;;;;;;5128645;27;20209;-68
2022/10/07 05:34:08;;;;;;;5.77;3.10;;;11.20;99.90;;;;;;5128848;27;20201;-69
2022/10/07 05:36:35;;;;;;;2.90;2.27;;;11.20;99.90;;;;;;5128992;27;20216;-69
2022/10/07 05:39:01;;;;;;;3.17;2.97;;;11.20;99.90;;;;;;5128338;27;20205;-69
2022/10/07 05:41:28;;;;;;;4.23;2.73;;;11.20;99.90;;;;;;5128519;27;20205;-69
2022/10/07 05:43:56;;;;;;;5.17;2.97;;;11.20;99.90;;;;;;5128480;27;20605;-69
2022/10/07 05:46:23;;;;;;;3.90;2.80;;;11.20;99.90;;;;;;5128423;27;20417;-69
2022/10/07 05:48:51;;;;;;;4.40;2.70;;;11.20;99.90;;;;;;5129044;27;20243;-69
2022/10/07 05:51:18;;;;;;;4.87;2.87;;;11.20;99.90;;;;;;5128901;27;20212;-70
2022/10/07 05:53:45;;;;;;;6.27;3.37;;;11.20;99.90;;;;;;5128448;27;20209;-69
2022/10/07 05:56:16;;;;;;;4.10;3.20;;;11.10;99.90;;;;;;5128483;27;20201;-69
2022/10/07 05:58:43;;;;;;;5.20;3.07;;;11.10;99.90;;;;;;5128226;27;20197;-69
2022/10/07 06:01:15;;;;;;;7.00;3.40;;;11.10;99.90;;;;;;5124526;27;20229;-69
2022/10/07 06:03:43;;;;;;;6.37;3.60;;;11.10;99.90;;;;;;5109788;28;20194;-69
2022/10/07 06:06:10;;;;;;;4.83;3.57;;;11.00;99.90;;;;;;5128363;27;20255;-69
2022/10/07 06:08:37;;;;;;;3.93;3.50;;;11.00;99.90;;;;;;5128691;27;20197;-69
2022/10/07 06:13:50;;;;;;;4.57;3.47;;;11.00;99.90;;;;;;5128291;28;20192;-70
2022/10/07 06:16:18;;;;;;;4.43;3.37;;;10.90;99.90;;;;;;5115977;27;20292;-69
2022/10/07 06:18:45;;;;;;;3.90;3.37;;;10.90;99.90;;;;;;5107855;28;20217;-69
2022/10/07 06:21:12;;;;;;;8.13;3.87;;;10.90;99.90;;;;;;5107997;28;20576;-70
2022/10/07 06:23:39;;;;;;;6.87;3.97;;;10.90;99.90;;;;;;5108109;28;20206;-69
2022/10/07 06:26:08;;;;;;;5.97;3.83;;;10.90;99.90;;;;;;5107377;28;20240;-69
2022/10/07 06:28:36;;;;;;;6.63;4.03;;;10.90;99.90;;;;;;5108033;28;20214;-69
2022/10/07 06:31:04;;;;;;;5.93;3.70;;;10.90;99.90;;;;;;5107547;28;20206;-69
2022/10/07 06:33:33;;;;;;;7.80;3.40;;;10.90;99.90;;;;;;5107927;28;20206;-69
2022/10/07 06:36:02;;;;;;;5.50;3.37;;;10.90;99.90;;;;;;5125186;28;20213;-69
2022/10/07 06:38:29;;;;;;;10.50;4.30;;;10.90;99.90;;;;;;5128261;27;20206;-69
2022/10/07 06:40:57;;;;;;;5.63;3.63;;;10.90;99.90;;;;;;5127504;27;20233;-69
2022/10/07 06:43:25;;;;;;;4.90;3.57;;;11.00;99.90;;;;;;5129905;27;20233;-69
2022/10/07 06:45:51;;;;;;;5.07;3.57;;;11.00;99.90;;;;;;5132071;27;20229;-69
2022/10/07 06:48:18;;;;;;;5.03;3.53;;;11.00;99.90;;;;;;5131738;27;20217;-69
2022/10/07 06:50:51;;;;;;;4.83;3.23;;;11.10;99.90;;;;;;5131878;27;20205;-69
2022/10/07 06:53:18;;;;;;;4.83;3.33;;;11.10;99.90;;;;;;5111479;28;20190;-69
2022/10/07 06:55:46;;;;;;;7.20;3.67;;;11.10;99.90;;;;;;5110880;28;20621;-69
2022/10/07 06:58:12;;;;;;;6.27;3.70;;;11.20;99.90;;;;;;5121834;27;20202;-69
2022/10/07 07:00:39;;;;;;;7.37;3.70;;;11.20;99.90;;;;;;5130537;27;20235;-69
2022/10/07 07:03:06;;;;;;;6.70;3.37;;;11.30;99.90;;;;;;5111350;28;20644;-69
2022/10/07 07:05:36;;;;;;;3.67;3.40;;;11.30;99.90;;;;;;5111260;27;20252;-69
2022/10/07 07:08:04;;;;;;;4.70;3.50;;;11.30;99.90;;;;;;5111208;28;20202;-69
2022/10/07 07:10:31;;;;;;;4.67;3.80;;;11.40;99.90;;;;;;5110581;28;20944;-69
2022/10/07 07:12:59;;;;;;;5.07;3.50;;;11.50;99.90;;;;;;5126844;27;20220;-70
2022/10/07 07:15:26;;;;;;;4.73;3.50;;;11.50;99.90;;;;;;5131644;27;20236;-69
2022/10/07 07:17:52;;;;;;;3.97;3.60;;;11.60;99.90;;;;;;5131183;27;20580;-69
2022/10/07 07:20:19;;;;;;;5.43;4.00;;;11.60;99.90;;;;;;5131172;27;20699;-69
2022/10/07 07:22:46;;;;;;;4.87;3.50;;;11.70;99.90;;;;;;5114357;27;20671;-69
2022/10/07 07:25:14;;;;;;;7.97;3.90;;;11.70;99.90;;;;;;5110637;28;20238;-69
2022/10/07 07:27:41;;;;;;;3.93;3.47;;;11.80;99.90;;;;;;5110388;28;20735;-69
2022/10/07 07:30:08;;;;;;;4.10;3.63;;;11.90;99.90;;;;;;5110521;28;20681;-69
2022/10/07 07:32:35;;;;;;;6.40;3.37;;;11.90;99.90;;;;;;5110666;28;20222;-69
2022/10/07 07:35:03;;;;;;;5.80;3.53;;;12.00;99.90;;;;;;5119746;27;20664;-70
2022/10/07 07:37:30;;;;;;;6.20;3.50;;;12.10;99.90;;;;;;5131093;27;20205;-70
2022/10/07 07:39:57;;;;;;;8.03;3.63;;;12.20;99.90;;;;;;5130692;27;20743;-69
2022/10/07 07:42:27;;;;;;;6.63;3.33;;;12.20;99.90;;;;;;5130720;27;20205;-69
2022/10/07 07:44:54;;;;;;;4.67;3.40;;;12.30;99.90;;;;;;5130949;27;20217;-69
2022/10/07 07:47:20;;;;;;;3.67;3.30;;;12.40;99.90;;;;;;5130963;27;20237;-69
2022/10/07 07:49:48;;;;;;;5.77;3.30;;;12.50;99.90;;;;;;5130665;27;20205;-69
2022/10/07 07:52:15;;;;;;;5.90;4.00;;;12.50;99.90;;;;;;5130815;27;20209;-69
2022/10/07 07:54:42;;;;;;;3.87;3.43;;;12.60;99.90;;;;;;5129958;27;20209;-69
2022/10/07 07:57:10;;;;;;;5.77;3.60;;;12.70;99.90;;;;;;5130435;27;20237;-69
2022/10/07 07:59:38;;;;;;;3.70;3.40;;;12.70;99.90;;;;;;5130457;27;20726;-70
2022/10/07 08:02:06;;;;;;;3.40;3.10;;;12.80;99.90;;;;;;5130683;27;20186;-69
2022/10/07 08:04:33;;;;;;;5.50;3.30;;;12.80;99.90;;;;;;5130796;27;20212;-69
2022/10/07 08:07:00;;;;;;;8.10;3.43;;;12.90;99.90;;;;;;5130450;27;20503;-69
2022/10/07 08:09:26;;;;;;;4.83;3.23;;;13.00;99.90;;;;;;5112362;27;20209;-69
2022/10/07 08:11:53;;;;;;;6.20;3.50;;;13.10;99.90;;;;;;5109693;28;20209;-69
2022/10/07 08:14:21;;;;;;;4.50;3.20;;;13.10;99.90;;;;;;5109809;28;20205;-69
2022/10/07 08:16:50;;;;;;;2.90;2.60;;;13.20;99.90;;;;;;5109528;27;20212;-70
2022/10/07 08:19:17;;;;;;;6.60;3.60;;;13.20;99.90;;;;;;5109647;27;20210;-70
2022/10/07 08:21:44;;;;;;;5.20;3.17;;;13.30;99.90;;;;;;5117479;27;20595;-70
2022/10/07 08:24:13;;;;;;;6.03;3.10;;;13.40;99.90;;;;;;5130126;27;20217;-70
2022/10/07 08:26:40;;;;;;;3.40;2.53;;;13.40;99.90;;;;;;5129730;27;20323;-70
2022/10/07 08:29:07;;;;;;;4.83;3.20;;;13.50;99.90;;;;;;5130050;27;20205;-70
2022/10/07 08:31:34;;;;;;;4.90;3.00;;;13.50;99.90;;;;;;5129909;27;20209;-69
2022/10/07 08:34:05;;;;;;;3.97;3.20;;;13.70;99.90;;;;;;5129711;27;20206;-69
2022/10/07 08:36:32;;;;;;;5.70;2.83;;;13.70;99.90;;;;;;5129590;27;20201;-69
2022/10/07 08:38:59;;;;;;;3.40;3.20;;;13.80;99.90;;;;;;5129642;27;20201;-69
2022/10/07 08:41:39;;;;;;;3.47;3.17;;;13.90;99.90;;;;;;5129250;27;20675;-69
2022/10/07 08:44:18;;;;;;;4.63;3.00;;;13.90;99.90;;;;;;5129722;27;20427;-69
2022/10/07 08:46:53;;;;;;;6.00;2.60;;;14.00;99.90;;;;;;5129300;27;20248;-69
2022/10/07 08:49:27;;;;;;;5.00;3.07;;;14.10;99.90;;;;;;5129717;27;20193;-69
2022/10/07 08:51:59;;;;;;;5.37;2.97;;;14.20;99.90;;;;;;5120188;27;20201;-69
2022/10/07 08:54:29;;;;;;;6.43;3.03;;;14.20;99.90;;;;;;5115551;27;20210;-69
2022/10/07 08:57:02;;;;;;;4.73;2.73;;;14.30;99.90;;;;;;5108716;28;20210;-69
2022/10/07 08:59:32;;;;;;;5.27;2.93;;;14.40;99.90;;;;;;5108428;28;20393;-69
2022/10/07 09:02:14;;;;;;;6.20;2.97;;;14.40;99.90;;;;;;5108492;28;20203;-69
2022/10/07 09:04:53;;;;;;;4.27;2.20;;;14.60;99.90;;;;;;5108587;28;20299;-69
2022/10/07 09:07:30;;;;;;;4.40;2.37;;;14.60;99.90;;;;;;5107971;28;20228;-69
2022/10/07 09:10:02;;;;;;;5.73;2.57;;;14.70;99.90;;;;;;5108586;28;20205;-69
2022/10/07 09:12:36;;;;;;;3.77;2.53;;;14.80;99.90;;;;;;5108759;28;20247;-69
2022/10/07 09:15:05;;;;;;;5.87;3.13;;;14.90;99.90;;;;;;5108552;28;20201;-70
2022/10/07 09:17:36;;;;;;;5.90;2.30;;;15.00;99.90;;;;;;5108648;28;20206;-69
2022/10/07 09:20:15;;;;;;;7.23;2.77;;;15.00;99.90;;;;;;5108230;28;20680;-69
2022/10/07 09:22:45;;;;;;;3.67;2.70;;;15.10;99.90;;;;;;5124424;27;20205;-69
2022/10/07 09:25:20;;;;;;;5.50;3.00;;;15.20;99.90;;;;;;5129065;27;20193;-69
2022/10/07 09:27:47;;;;;;;4.17;2.20;;;15.30;99.90;;;;;;5128873;27;20751;-69
2022/10/07 09:30:15;;;;;;;4.07;2.13;;;15.30;99.90;;;;;;5128649;27;20201;-69
2022/10/07 09:32:44;;;;;;;3.33;2.13;;;15.40;99.90;;;;;;5128975;27;20270;-69
2022/10/07 09:35:14;;;;;;;4.87;2.50;;;15.50;99.90;;;;;;5117572;27;20951;-69
2022/10/07 09:37:56;;;;;;;6.47;2.20;;;15.50;99.90;;;;;;5108463;28;20214;-69
2022/10/07 09:40:33;;;;;;;2.30;2.10;;;15.60;99.90;;;;;;5107664;28;20194;-69
2022/10/07 09:43:00;;;;;;;6.80;2.67;;;15.70;99.90;;;;;;5108167;28;20214;-69
2022/10/07 09:45:30;;;;;;;3.97;2.00;;;15.70;99.90;;;;;;5108319;28;20237;-69
2022/10/07 09:48:06;;;;;;;2.90;2.10;;;15.80;99.90;;;;;;5126464;27;20699;-68
2022/10/07 09:50:37;;;;;;;2.20;2.00;;;15.90;99.90;;;;;;5114792;27;20214;-68
2022/10/07 09:53:06;;;;;;;6.70;2.53;;;16.00;99.90;;;;;;5108403;28;20202;-69
2022/10/07 09:55:38;;;;;;;4.37;2.50;;;16.10;99.90;;;;;;5107796;28;20217;-68
2022/10/07 09:58:15;;;;;;;3.77;2.13;;;16.10;99.90;;;;;;5108050;28;20655;-68
2022/10/07 10:00:44;;;;;;;3.70;1.97;;;16.30;99.90;;;;;;5115351;27;20237;-68
2022/10/07 10:03:12;;;;;;;5.97;2.23;;;16.40;99.90;;;;;;5128355;27;20558;-69
2022/10/07 10:05:50;;;;;;;4.27;2.13;;;16.50;99.90;;;;;;5128682;27;20209;-69
2022/10/07 10:08:25;;;;;;;6.00;2.20;;;16.60;99.90;;;;;;5128086;27;20201;-69
2022/10/07 10:10:54;;;;;;;3.60;2.20;;;16.70;99.90;;;;;;5128001;27;20193;-68
2022/10/07 10:13:27;;;;;;;2.70;1.90;;;16.70;99.90;;;;;;5128930;27;20205;-69
2022/10/07 10:15:54;;;;;;;4.53;2.00;;;16.80;99.90;;;;;;5128124;27;20836;-69
2022/10/07 10:18:31;;;;;;;3.53;1.80;;;16.80;99.90;;;;;;5132011;27;20197;-69
2022/10/07 10:21:18;;;;;;;5.93;1.70;;;17.00;99.90;;;;;;5130874;27;20201;-69
2022/10/07 10:23:46;;;;;;;2.73;1.87;;;17.10;99.90;;;;;;5111689;28;20284;-69
2022/10/07 10:26:29;;;;;;;2.77;2.20;;;17.20;99.90;;;;;;5112017;28;20234;-69
2022/10/07 10:29:05;;;;;;;5.33;2.00;;;17.20;99.90;;;;;;5129775;27;20228;-69
2022/10/07 10:31:43;;;;;;;4.60;2.03;;;17.40;99.90;;;;;;5132363;27;20201;-69
2022/10/07 10:34:20;;;;;;;7.60;2.10;;;17.50;99.90;;;;;;5132627;27;20675;-69
2022/10/07 10:36:58;;;;;;;3.47;1.90;;;17.60;99.90;;;;;;5132585;27;20193;-69
2022/10/07 10:39:36;;;;;;;5.87;2.03;;;17.70;99.90;;;;;;5132406;27;20185;-69
2022/10/07 10:42:10;;;;;;;5.70;3.33;;;17.80;99.90;;;;;;5131685;27;20734;-69
2022/10/07 10:44:54;;;;;;;3.53;1.47;;;17.90;99.90;;;;;;5132422;27;20284;-69
2022/10/07 10:47:32;;;;;;;3.03;1.63;;;18.00;99.90;;;;;;5116624;27;20329;-69
2022/10/07 10:50:10;;;;;;;3.87;1.77;;;17.90;99.90;;;;;;5111207;28;20239;-70
2022/10/07 10:52:50;;;;;;;4.70;1.57;;;17.90;99.90;;;;;;5126261;27;20740;-69
2022/10/07 10:55:35;;;;;;;3.00;1.60;;;18.00;99.90;;;;;;5131708;27;20193;-69
2022/10/07 10:58:14;;;;;;;3.30;1.53;;;18.00;99.90;;;;;;5131544;27;20206;-69
2022/10/07 11:00:50;;;;;;;6.33;2.03;;;18.30;99.90;;;;;;5131219;27;20241;-69
2022/10/07 11:03:29;;;;;;;2.67;1.40;;;18.40;99.90;;;;;;5131322;27;20546;-69
2022/10/07 11:05:56;;;;;;;6.70;1.93;;;18.50;99.90;;;;;;5131558;27;20197;-69
2022/10/07 11:08:30;;;;;;;4.73;1.80;;;18.60;99.90;;;;;;5131561;27;20237;-69
2022/10/07 11:10:59;;;;;;;4.00;1.73;;;18.70;99.90;;;;;;5131089;27;20190;-70
2022/10/07 11:13:33;;;;;;;6.07;2.47;;;18.80;99.90;;;;;;5131473;27;20213;-69
2022/10/07 11:16:05;;;;;;;2.83;2.00;;;18.90;99.90;;;;;;5131294;27;20196;-69
2022/10/07 11:18:39;;;;;;;5.70;1.90;;;18.90;99.90;;;;;;5131194;27;20190;-69
2022/10/07 11:21:11;;;;;;;2.77;1.30;;;19.00;99.90;;;;;;5131572;27;20292;-69
2022/10/07 11:23:46;;;;;;;4.20;1.77;;;19.10;99.90;;;;;;5131199;27;20220;-69
2022/10/07 11:26:21;;;;;;;3.70;1.80;;;19.20;99.90;;;;;;5131037;27;20193;-69
2022/10/07 11:28:50;;;;;;;3.37;1.60;;;19.40;99.90;;;;;;5129939;27;20204;-70
2022/10/07 11:31:26;;;;;;;2.30;1.40;;;19.40;99.90;;;;;;5131294;27;20216;-69
2022/10/07 11:34:06;;;;;;;4.57;1.90;;;19.50;99.90;;;;;;5131184;27;20203;-69
2022/10/07 11:36:40;;;;;;;3.23;1.80;;;19.60;99.90;;;;;;5131523;27;20197;-69
2022/10/07 11:39:09;;;;;;;3.70;1.73;;;19.80;99.90;;;;;;5130961;27;20193;-69
2022/10/07 11:41:47;;;;;;;4.33;1.77;;;19.80;99.90;;;;;;5130679;27;20571;-69
2022/10/07 11:44:22;;;;;;;3.85;1.55;;;19.80;99.90;;;;;;5110602;28;20200;-69
2022/10/07 11:46:52;;;;;;;4.88;1.95;;;19.90;99.90;;;;;;5109942;28;20245;-69
2022/10/07 11:49:23;;;;;;;3.72;2.20;;;20.00;99.90;;;;;;5120601;27;20202;-69
2022/10/07 11:51:57;;;;;;;4.82;1.85;;;20.10;99.90;;;;;;5130890;27;20205;-69
2022/10/07 11:54:28;;;;;;;3.60;1.65;;;20.20;99.90;;;;;;5130848;27;20201;-69
2022/10/07 11:56:59;;;;;;;3.78;1.50;;;20.20;99.90;;;;;;5130728;27;20198;-69
2022/10/07 11:59:36;;;;;;;5.15;1.90;;;20.20;99.90;;;;;;5130602;27;20189;-70
2022/10/07 12:02:05;;;;;;;3.20;1.48;;;20.30;99.50;;;;;;5130925;27;20190;-69
2022/10/07 12:04:40;;;;;;;3.13;1.50;;;20.60;99.90;;;;;;5130862;27;20232;-69
2022/10/07 12:07:37;;;;;;;5.10;1.80;;;20.80;99.40;;;;;;5130326;27;20217;-69
2022/10/07 12:10:33;;;;;;;2.47;1.90;;;20.70;98.40;;;;;;5130347;27;20237;-69
2022/10/07 12:13:02;;;;;;;4.50;1.60;;;20.50;98.50;;;;;;5130485;27;20227;-69
2022/10/07 12:15:35;;;;;;;4.50;2.20;;;20.50;98.70;;;;;;5130409;27;20209;-69
2022/10/07 12:18:27;;;;;;;4.18;1.88;;;20.70;99.40;;;;;;5130491;27;20209;-69
2022/10/07 12:21:08;;;;;;;2.72;1.52;;;21.00;99.60;;;;;;5110014;27;20755;-69
2022/10/07 12:23:44;;;;;;;5.00;1.98;;;21.10;98.80;;;;;;5130457;27;20220;-69
2022/10/07 12:26:47;;;;;;;4.07;1.42;;;21.20;98.30;;;;;;5129781;27;20213;-69
2022/10/07 12:29:32;;;;;;;3.47;1.55;;;21.30;97.70;;;;;;5130146;27;20197;-69
2022/10/07 12:31:59;;;;;;;2.20;1.75;;;21.40;97.70;;;;;;5127962;27;20698;-69
2022/10/07 12:34:36;;;;;;;4.32;1.73;;;21.40;98.00;;;;;;5130058;27;20539;-69
2022/10/07 12:37:40;;;;;;;3.80;1.77;;;21.50;97.50;;;;;;5109640;28;20190;-69
2022/10/07 12:40:14;;;;;;;7.40;2.00;;;21.60;98.00;;;;;;5108496;28;20291;-69
2022/10/07 12:42:46;;;;;;;6.60;2.20;;;21.50;98.80;;;;;;5109214;28;20198;-69
2022/10/07 12:45:15;;;;;;;3.55;1.80;;;21.50;97.90;;;;;;5108833;28;20565;-69
2022/10/07 12:47:43;;;;;;;3.65;1.67;;;21.40;98.20;;;;;;5108788;28;20242;-70
2022/10/07 12:50:15;;;;;;;3.05;1.77;;;21.40;98.50;;;;;;5122475;27;20202;-69
2022/10/07 12:52:45;;;;;;;3.50;1.92;;;21.40;98.00;;;;;;5129369;27;20202;-69
2022/10/07 12:55:18;;;;;;;5.25;1.85;;;21.50;97.90;;;;;;5129504;27;20208;-69
2022/10/07 12:57:50;;;;;;;3.10;1.48;;;21.60;97.60;;;;;;5129298;27;20201;-69
2022/10/07 13:00:21;;;;;;;3.88;2.10;;;21.70;97.90;;;;;;5129179;27;20237;-69
2022/10/07 13:03:35;;;;;;;2.42;1.73;;;21.80;98.40;;;;;;5129374;27;20285;-69
2022/10/07 13:06:41;;;;;;;4.50;1.85;;;21.70;97.70;;;;;;5129468;27;20246;-70
2022/10/07 13:09:31;;;;;;;4.15;1.80;;;21.70;97.80;;;;;;5129354;27;20413;-70
2022/10/07 13:12:07;;;;;;;3.72;1.80;;;21.80;98.30;;;;;;5128869;27;20185;-70
2022/10/07 13:14:41;;;;;;;3.50;1.60;;;21.90;98.30;;;;;;5112623;27;20296;-69
2022/10/07 13:17:24;;;;;;;4.30;1.67;;;21.90;98.50;;;;;;5115086;27;20197;-69